createdAt,value
2023-09-11T00:01:55.271Z,16.00
2023-09-11T00:03:58.430Z,15.99
2023-09-11T00:06:05.907Z,15.97
2023-09-11T00:08:07.918Z,15.89
2023-09-11T00:10:09.958Z,15.92
2023-09-11T00:12:11.877Z,15.86
2023-09-11T00:14:13.482Z,15.94
2023-09-11T00:16:15.020Z,15.95
2023-09-11T00:18:17.040Z,15.79
2023-09-11T00:20:18.750Z,15.81
2023-09-11T00:22:20.374Z,15.78
2023-09-11T00:24:21.942Z,15.76
2023-09-11T00:26:23.557Z,15.70
2023-09-11T00:28:27.505Z,15.65
2023-09-11T00:30:29.306Z,15.57
2023-09-11T00:32:31.011Z,15.59
2023-09-11T00:34:32.662Z,15.61
2023-09-11T00:36:34.873Z,15.54
2023-09-11T00:38:36.479Z,15.51
2023-09-11T00:40:38.123Z,15.54
2023-09-11T00:42:39.828Z,15.58
2023-09-11T00:44:41.640Z,15.57
2023-09-11T00:46:43.473Z,15.52
2023-09-11T00:48:45.336Z,15.52
2023-09-11T00:50:47.926Z,15.49
2023-09-11T00:52:50.025Z,15.52
2023-09-11T00:54:53.404Z,15.52
2023-09-11T00:56:55.288Z,15.53
2023-09-11T00:58:57.369Z,15.50
2023-09-11T01:00:59.754Z,15.46
2023-09-11T01:03:01.367Z,15.42
2023-09-11T01:05:08.171Z,15.42
2023-09-11T01:07:10.304Z,15.41
2023-09-11T01:09:11.892Z,15.40
2023-09-11T01:11:13.538Z,15.37
2023-09-11T01:13:15.188Z,15.42
2023-09-11T01:15:17.685Z,15.44
2023-09-11T01:17:31.669Z,15.47
2023-09-11T01:19:52.133Z,15.38
2023-09-11T01:22:00.783Z,15.37
2023-09-11T01:24:23.946Z,15.37
2023-09-11T01:27:04.374Z,15.33
2023-09-11T01:29:28.044Z,15.33
2023-09-11T01:31:33.283Z,15.34
2023-09-11T01:33:35.377Z,15.30
2023-09-11T01:35:37.061Z,15.27
2023-09-11T01:37:38.763Z,15.18
2023-09-11T01:39:40.378Z,15.20
2023-09-11T01:41:45.719Z,15.14
2023-09-11T01:43:49.611Z,15.09
2023-09-11T01:45:51.238Z,15.13
2023-09-11T01:47:54.652Z,15.06
2023-09-11T01:49:58.387Z,15.11
2023-09-11T01:52:02.082Z,15.12
2023-09-11T01:54:05.011Z,15.13
2023-09-11T01:56:07.325Z,15.15
2023-09-11T01:58:08.919Z,15.12
2023-09-11T02:00:12.736Z,15.07
2023-09-11T02:02:15.464Z,15.15
2023-09-11T02:04:17.313Z,15.16
2023-09-11T02:06:19.100Z,15.12
2023-09-11T02:08:20.732Z,15.03
2023-09-11T02:10:22.751Z,14.99
2023-09-11T02:12:24.311Z,14.96
2023-09-11T02:14:25.998Z,14.96
2023-09-11T02:16:27.908Z,14.98
2023-09-11T02:18:29.639Z,14.96
2023-09-11T02:20:31.327Z,15.00
2023-09-11T02:22:32.923Z,15.02
2023-09-11T02:24:34.891Z,14.96
2023-09-11T02:26:36.793Z,14.91
2023-09-11T02:28:39.430Z,14.93
2023-09-11T02:30:41.152Z,15.03
2023-09-11T02:32:42.742Z,14.95
2023-09-11T02:34:44.505Z,14.96
2023-09-11T02:36:46.758Z,14.96
2023-09-11T02:38:48.444Z,14.96
2023-09-11T02:41:02.979Z,14.92
2023-09-11T02:43:10.312Z,14.91
2023-09-11T02:45:12.072Z,14.92
2023-09-11T02:47:13.643Z,14.83
2023-09-11T02:49:15.296Z,14.90
2023-09-11T02:51:18.414Z,14.86
2023-09-11T02:53:21.135Z,14.79
2023-09-11T02:55:23.169Z,14.77
2023-09-11T02:57:24.802Z,14.76
2023-09-11T02:59:26.493Z,14.71
2023-09-11T03:01:28.806Z,14.75
2023-09-11T03:03:30.882Z,14.85
2023-09-11T03:05:33.461Z,14.85
2023-09-11T03:07:35.466Z,14.76
2023-09-11T03:09:37.052Z,14.68
2023-09-11T03:11:38.684Z,14.71
2023-09-11T03:13:40.513Z,14.68
2023-09-11T03:15:46.746Z,14.72
2023-09-11T03:17:50.645Z,14.68
2023-09-11T03:19:52.646Z,14.68
2023-09-11T03:21:56.887Z,14.65
2023-09-11T03:23:58.697Z,14.67
2023-09-11T03:26:00.767Z,14.64
2023-09-11T03:28:02.926Z,14.65
2023-09-11T03:30:05.564Z,14.63
2023-09-11T03:32:07.889Z,14.57
2023-09-11T03:34:10.381Z,14.56
2023-09-11T03:36:18.478Z,14.55
2023-09-11T03:38:20.494Z,14.53
2023-09-11T03:40:23.896Z,14.55
2023-09-11T03:42:25.649Z,14.53
2023-09-11T03:44:28.322Z,14.54
2023-09-11T03:46:30.004Z,14.52
2023-09-11T03:48:31.763Z,14.54
2023-09-11T03:50:33.934Z,14.54
2023-09-11T03:52:35.657Z,14.51
2023-09-11T03:54:37.459Z,14.47
2023-09-11T03:56:39.336Z,14.50
2023-09-11T03:58:45.321Z,14.49
2023-09-11T04:00:48.809Z,14.43
2023-09-11T04:02:50.566Z,14.41
2023-09-11T04:04:52.798Z,14.49
2023-09-11T04:06:54.359Z,14.50
2023-09-11T04:08:56.224Z,14.48
2023-09-11T04:10:57.858Z,14.45
2023-09-11T04:12:59.957Z,14.42
2023-09-11T04:15:01.546Z,14.39
2023-09-11T04:17:03.557Z,14.42
2023-09-11T04:19:07.355Z,14.36
2023-09-11T04:21:10.973Z,14.40
2023-09-11T04:23:13.132Z,14.41
2023-09-11T04:25:14.742Z,14.38
2023-09-11T04:27:16.330Z,14.37
2023-09-11T04:29:18.532Z,14.38
2023-09-11T04:31:20.070Z,14.36
2023-09-11T04:33:22.136Z,14.32
2023-09-11T04:35:25.072Z,14.30
2023-09-11T04:37:27.745Z,14.31
2023-09-11T04:39:29.382Z,14.29
2023-09-11T04:41:31.389Z,14.31
2023-09-11T04:43:33.017Z,14.27
2023-09-11T04:45:36.203Z,14.29
2023-09-11T04:47:38.890Z,14.28
2023-09-11T04:49:40.778Z,14.28
2023-09-11T04:51:42.907Z,14.28
2023-09-11T04:53:44.522Z,14.29
2023-09-11T04:55:48.012Z,14.28
2023-09-11T04:57:51.224Z,14.25
2023-09-11T04:59:52.889Z,14.23
2023-09-11T05:01:54.543Z,14.25
2023-09-11T05:03:56.343Z,14.24
2023-09-11T05:05:58.225Z,14.26
2023-09-11T05:08:00.293Z,14.28
2023-09-11T05:10:02.775Z,14.28
2023-09-11T05:12:05.338Z,14.31
2023-09-11T05:14:07.143Z,14.24
2023-09-11T05:16:08.753Z,14.23
2023-09-11T05:18:12.250Z,14.32
2023-09-11T05:20:14.118Z,14.28
2023-09-11T05:22:15.645Z,14.30
2023-09-11T05:24:17.181Z,14.29
2023-09-11T05:26:18.705Z,14.35
2023-09-11T05:28:20.246Z,14.41
2023-09-11T05:30:22.904Z,14.45
2023-09-11T05:32:26.241Z,14.51
2023-09-11T05:34:27.866Z,14.67
2023-09-11T05:36:29.420Z,14.70
2023-09-11T05:38:30.975Z,14.81
2023-09-11T05:40:32.512Z,14.85
2023-09-11T05:42:54.039Z,14.94
2023-09-11T05:45:15.664Z,15.03
2023-09-11T05:47:39.647Z,15.15
2023-09-11T05:50:02.175Z,15.26
2023-09-11T05:52:04.435Z,15.33
2023-09-11T05:54:06.609Z,15.42
2023-09-11T05:56:08.400Z,15.51
2023-09-11T05:58:09.981Z,15.62
2023-09-11T06:00:13.596Z,15.72
2023-09-11T06:02:15.408Z,15.84
2023-09-11T06:04:17.272Z,15.92
2023-09-11T06:06:18.877Z,16.01
2023-09-11T06:08:20.376Z,16.16
2023-09-11T06:10:22.068Z,16.26
2023-09-11T06:12:24.349Z,16.36
2023-09-11T06:14:26.151Z,16.50
2023-09-11T06:16:27.856Z,16.69
2023-09-11T06:18:29.677Z,16.86
2023-09-11T06:20:31.439Z,17.05
2023-09-11T06:22:33.241Z,17.19
2023-09-11T06:24:34.772Z,17.35
2023-09-11T06:26:36.310Z,17.50
2023-09-11T06:28:38.198Z,17.66
2023-09-11T06:30:40.685Z,17.80
2023-09-11T06:32:43.149Z,17.93
2023-09-11T06:34:44.939Z,18.08
2023-09-11T06:36:47.309Z,18.22
2023-09-11T06:38:48.917Z,18.39
2023-09-11T06:40:50.748Z,18.77
2023-09-11T06:42:52.400Z,19.11
2023-09-11T06:44:55.089Z,19.48
2023-09-11T06:46:56.687Z,19.70
2023-09-11T06:48:58.275Z,19.76
2023-09-11T06:51:00.299Z,20.02
2023-09-11T06:53:02.014Z,20.48
2023-09-11T06:55:03.961Z,20.80
2023-09-11T06:57:05.916Z,20.96
2023-09-11T06:59:07.797Z,20.97
2023-09-11T07:01:09.596Z,20.83
2023-09-11T07:03:11.354Z,20.98
2023-09-11T07:05:12.992Z,21.17
2023-09-11T07:07:14.965Z,21.40
2023-09-11T07:09:16.697Z,21.61
2023-09-11T07:11:18.390Z,21.79
2023-09-11T07:13:20.050Z,21.92
2023-09-11T07:15:21.613Z,21.98
2023-09-11T07:17:23.214Z,22.11
2023-09-11T07:19:24.836Z,22.26
2023-09-11T07:21:26.434Z,22.40
2023-09-11T07:23:30.314Z,22.53
2023-09-11T07:25:31.923Z,22.69
2023-09-11T07:27:36.552Z,22.86
2023-09-11T07:29:38.270Z,22.95
2023-09-11T07:31:39.846Z,23.10
2023-09-11T07:33:41.458Z,23.26
2023-09-11T07:35:43.256Z,23.30
2023-09-11T07:37:44.822Z,23.42
2023-09-11T07:39:46.404Z,23.58
2023-09-11T07:41:49.128Z,23.79
2023-09-11T07:43:51.137Z,23.94
2023-09-11T07:45:52.950Z,24.12
2023-09-11T07:47:55.682Z,24.29
2023-09-11T07:49:57.273Z,24.44
2023-09-11T07:51:59.075Z,24.60
2023-09-11T07:54:01.245Z,24.71
2023-09-11T07:56:09.887Z,24.87
2023-09-11T07:58:11.454Z,25.00
2023-09-11T08:00:13.921Z,25.17
2023-09-11T08:02:15.646Z,25.37
2023-09-11T08:04:17.391Z,25.56
2023-09-11T08:06:20.079Z,25.67
2023-09-11T08:08:21.681Z,25.81
2023-09-11T08:10:23.835Z,25.96
2023-09-11T08:12:26.161Z,26.10
2023-09-11T08:14:27.985Z,26.18
2023-09-11T08:16:30.341Z,26.29
2023-09-11T08:18:32.028Z,26.35
2023-09-11T08:20:34.159Z,26.43
2023-09-11T08:22:35.837Z,26.52
2023-09-11T08:24:38.016Z,26.70
2023-09-11T08:26:39.775Z,26.82
2023-09-11T08:28:41.490Z,26.93
2023-09-11T08:30:43.236Z,27.02
2023-09-11T08:32:44.860Z,27.19
2023-09-11T08:34:46.485Z,27.37
2023-09-11T08:36:48.573Z,27.51
2023-09-11T08:38:50.153Z,27.68
2023-09-11T08:40:51.869Z,27.87
2023-09-11T08:42:53.586Z,28.01
2023-09-11T08:44:55.111Z,28.16
2023-09-11T08:47:00.440Z,28.31
2023-09-11T08:49:03.763Z,28.34
2023-09-11T08:51:11.795Z,28.32
2023-09-11T08:53:17.072Z,28.10
2023-09-11T08:55:22.549Z,27.96
2023-09-11T08:57:27.542Z,28.03
2023-09-11T08:59:30.763Z,28.17
2023-09-11T09:01:33.486Z,28.41
2023-09-11T09:03:36.497Z,28.57
2023-09-11T09:05:38.658Z,28.48
2023-09-11T09:07:40.764Z,28.44
2023-09-11T09:09:43.262Z,28.51
2023-09-11T09:11:49.610Z,28.68
2023-09-11T09:13:51.275Z,28.85
2023-09-11T09:15:53.026Z,29.11
2023-09-11T09:17:56.032Z,29.39
2023-09-11T09:19:57.808Z,29.67
2023-09-11T09:22:02.350Z,29.84
2023-09-11T09:24:12.729Z,30.01
2023-09-11T09:26:15.825Z,30.17
2023-09-11T09:28:32.259Z,30.29
2023-09-11T09:30:37.831Z,30.00
2023-09-11T09:32:39.455Z,30.14
2023-09-11T09:34:50.134Z,30.22
2023-09-11T09:36:52.738Z,29.97
2023-09-11T09:38:54.298Z,29.88
2023-09-11T09:40:56.811Z,29.78
2023-09-11T09:43:02.327Z,29.92
2023-09-11T09:45:04.477Z,29.91
2023-09-11T09:47:07.732Z,29.67
2023-09-11T09:49:10.892Z,29.84
2023-09-11T09:51:12.578Z,30.25
2023-09-11T09:53:22.292Z,30.63
2023-09-11T09:55:24.088Z,30.76
2023-09-11T09:57:27.918Z,30.88
2023-09-11T09:59:29.633Z,30.23
2023-09-11T10:01:31.250Z,30.39
2023-09-11T10:03:48.644Z,30.68
2023-09-11T10:05:51.193Z,30.69
2023-09-11T10:07:53.870Z,30.95
2023-09-11T10:10:30.725Z,30.87
2023-09-11T10:12:32.330Z,30.93
2023-09-11T10:14:34.364Z,30.98
2023-09-11T10:16:36.937Z,31.02
2023-09-11T10:18:42.199Z,31.27
2023-09-11T10:20:43.940Z,31.35
2023-09-11T10:22:45.971Z,31.38
2023-09-11T10:24:47.727Z,31.55
2023-09-11T10:26:53.407Z,31.54
2023-09-11T10:28:59.293Z,31.42
2023-09-11T10:31:11.854Z,31.46
2023-09-11T10:33:21.690Z,31.56
2023-09-11T10:35:23.464Z,31.59
2023-09-11T10:37:25.168Z,31.59
2023-09-11T10:39:27.026Z,31.58
2023-09-11T10:41:29.498Z,31.66
2023-09-11T10:43:34.877Z,31.77
2023-09-11T10:45:37.768Z,31.89
2023-09-11T10:47:50.638Z,31.92
2023-09-11T10:49:52.252Z,31.96
2023-09-11T10:51:53.950Z,32.02
2023-09-11T10:53:56.181Z,32.29
2023-09-11T10:56:01.208Z,32.38
2023-09-11T10:58:07.804Z,32.40
2023-09-11T11:00:12.935Z,31.44
2023-09-11T11:02:14.891Z,31.37
2023-09-11T11:04:17.660Z,31.42
2023-09-11T11:06:23.325Z,31.48
2023-09-11T11:08:25.424Z,31.46
2023-09-11T11:10:27.649Z,31.69
2023-09-11T11:12:33.843Z,30.86
2023-09-11T11:14:36.767Z,30.66
2023-09-11T11:16:39.265Z,31.21
2023-09-11T11:18:41.135Z,31.56
2023-09-11T11:21:05.133Z,31.84
2023-09-11T11:23:11.709Z,31.98
2023-09-11T11:25:13.664Z,32.18
2023-09-11T11:27:15.376Z,32.59
2023-09-11T11:29:18.250Z,32.88
2023-09-11T11:31:22.023Z,32.30
2023-09-11T11:33:26.166Z,31.70
2023-09-11T11:35:27.945Z,31.92
2023-09-11T11:37:31.445Z,31.91
2023-09-11T11:39:39.770Z,31.69
2023-09-11T11:41:42.050Z,31.86
2023-09-11T11:43:43.947Z,31.45
2023-09-11T11:45:48.287Z,31.61
2023-09-11T11:47:52.041Z,31.41
2023-09-11T11:49:54.694Z,31.72
2023-09-11T11:52:01.700Z,31.64
2023-09-11T11:54:05.243Z,31.91
2023-09-11T11:56:06.870Z,32.16
2023-09-11T11:58:10.161Z,31.77
2023-09-11T12:00:12.637Z,31.74
2023-09-11T12:02:24.411Z,31.76
2023-09-11T12:04:45.243Z,31.84
2023-09-11T12:06:48.078Z,31.50
2023-09-11T12:08:50.804Z,31.47
2023-09-11T12:10:53.252Z,31.40
2023-09-11T12:12:54.780Z,31.72
2023-09-11T12:14:57.611Z,31.95
2023-09-11T12:16:59.268Z,32.04
2023-09-11T12:19:01.601Z,32.31
2023-09-11T12:21:05.203Z,32.72
2023-09-11T12:23:07.053Z,33.06
2023-09-11T12:25:08.921Z,33.22
2023-09-11T12:27:10.660Z,33.44
2023-09-11T12:29:12.375Z,33.52
2023-09-11T12:31:14.331Z,33.70
2023-09-11T12:33:27.510Z,33.83
2023-09-11T12:35:32.742Z,34.03
2023-09-11T12:37:35.459Z,33.98
2023-09-11T12:39:37.174Z,33.96
2023-09-11T12:41:38.742Z,34.14
2023-09-11T12:43:40.251Z,34.40
2023-09-11T12:45:42.514Z,34.72
2023-09-11T12:47:44.263Z,34.94
2023-09-11T12:49:45.932Z,35.09
2023-09-11T12:51:47.575Z,35.25
2023-09-11T12:53:50.561Z,35.17
2023-09-11T12:55:52.517Z,34.75
2023-09-11T12:57:57.813Z,34.55
2023-09-11T13:00:02.557Z,34.58
2023-09-11T13:02:05.746Z,34.69
2023-09-11T13:04:08.126Z,34.74
2023-09-11T13:06:09.806Z,34.92
2023-09-11T13:08:12.120Z,35.06
2023-09-11T13:10:15.936Z,35.23
2023-09-11T13:12:17.534Z,35.39
2023-09-11T13:14:19.524Z,35.36
2023-09-11T13:16:21.720Z,35.44
2023-09-11T13:18:23.470Z,35.74
2023-09-11T13:20:25.110Z,35.32
2023-09-11T13:22:26.942Z,35.42
2023-09-11T13:24:28.703Z,35.58
2023-09-11T13:26:30.485Z,35.72
2023-09-11T13:28:32.409Z,35.70
2023-09-11T13:30:35.104Z,35.77
2023-09-11T13:32:38.851Z,35.41
2023-09-11T13:34:40.480Z,35.51
2023-09-11T13:36:42.002Z,35.74
2023-09-11T13:38:43.804Z,35.83
2023-09-11T13:40:49.261Z,36.11
2023-09-11T13:42:51.284Z,36.17
2023-09-11T13:44:54.032Z,36.16
2023-09-11T13:46:55.737Z,35.92
2023-09-11T13:48:57.437Z,36.06
2023-09-11T13:50:59.003Z,36.11
2023-09-11T13:53:02.157Z,35.25
2023-09-11T13:55:05.025Z,35.01
2023-09-11T13:57:06.659Z,34.79
2023-09-11T13:59:08.254Z,34.95
2023-09-11T14:01:09.862Z,35.03
2023-09-11T14:03:11.503Z,35.13
2023-09-11T14:05:13.156Z,35.27
2023-09-11T14:07:15.421Z,35.44
2023-09-11T14:09:16.976Z,35.65
2023-09-11T14:11:18.576Z,35.48
2023-09-11T14:13:21.527Z,35.73
2023-09-11T14:15:23.640Z,36.17
2023-09-11T14:17:25.576Z,36.41
2023-09-11T14:19:27.121Z,36.49
2023-09-11T14:21:28.581Z,36.20
2023-09-11T14:23:30.112Z,35.95
2023-09-11T14:25:31.772Z,34.88
2023-09-11T14:27:33.790Z,35.30
2023-09-11T14:29:35.349Z,35.57
2023-09-11T14:31:37.492Z,36.04
2023-09-11T14:33:39.315Z,36.41
2023-09-11T14:35:41.424Z,36.48
2023-09-11T14:37:43.064Z,36.81
2023-09-11T14:39:44.590Z,37.00
2023-09-11T14:41:46.267Z,37.19
2023-09-11T14:43:47.843Z,37.25
2023-09-11T14:45:49.408Z,37.09
2023-09-11T14:47:51.077Z,36.86
2023-09-11T14:49:52.745Z,36.47
2023-09-11T14:51:54.328Z,35.69
2023-09-11T14:53:55.975Z,36.21
2023-09-11T14:56:01.889Z,36.42
2023-09-11T14:58:03.481Z,36.55
2023-09-11T15:00:05.950Z,36.99
2023-09-11T15:02:08.601Z,37.18
2023-09-11T15:04:13.459Z,36.97
2023-09-11T15:06:25.688Z,37.33
2023-09-11T15:08:27.891Z,37.47
2023-09-11T15:10:29.452Z,37.65
2023-09-11T15:12:31.332Z,37.90
2023-09-11T15:14:34.180Z,37.09
2023-09-11T15:16:35.764Z,37.58
2023-09-11T15:18:37.852Z,37.81
2023-09-11T15:20:39.593Z,37.61
2023-09-11T15:22:41.143Z,37.66
2023-09-11T15:24:43.955Z,37.74
2023-09-11T15:26:45.630Z,37.98
2023-09-11T15:28:47.327Z,38.25
2023-09-11T15:30:56.850Z,38.60
2023-09-11T15:32:59.439Z,38.95
2023-09-11T15:35:01.184Z,39.23
2023-09-11T15:37:02.833Z,39.45
2023-09-11T15:39:05.593Z,39.45
2023-09-11T15:41:07.530Z,39.27
2023-09-11T15:43:09.153Z,38.95
2023-09-11T15:45:11.957Z,38.76
2023-09-11T15:47:14.034Z,38.09
2023-09-11T15:49:16.509Z,37.44
2023-09-11T15:51:18.299Z,37.19
2023-09-11T15:53:20.917Z,36.63
2023-09-11T15:55:22.503Z,36.45
2023-09-11T15:57:24.094Z,35.83
2023-09-11T15:59:25.650Z,35.47
2023-09-11T16:01:28.310Z,35.21
2023-09-11T16:03:30.749Z,34.92
2023-09-11T16:05:33.843Z,34.80
2023-09-11T16:07:35.504Z,34.57
2023-09-11T16:09:37.547Z,34.27
2023-09-11T16:11:39.116Z,34.27
2023-09-11T16:13:41.066Z,34.12
2023-09-11T16:15:42.991Z,33.81
2023-09-11T16:17:44.953Z,33.65
2023-09-11T16:19:46.837Z,33.39
2023-09-11T16:21:49.023Z,33.19
2023-09-11T16:23:50.685Z,33.10
2023-09-11T16:25:52.430Z,32.96
2023-09-11T16:27:54.708Z,32.91
2023-09-11T16:29:56.258Z,32.75
2023-09-11T16:31:57.713Z,32.63
2023-09-11T16:33:59.700Z,32.58
2023-09-11T16:36:01.939Z,32.46
2023-09-11T16:38:03.925Z,32.27
2023-09-11T16:40:07.835Z,32.01
2023-09-11T16:42:09.498Z,31.69
2023-09-11T16:44:11.692Z,31.32
2023-09-11T16:46:13.276Z,30.84
2023-09-11T16:48:14.876Z,30.37
2023-09-11T16:50:18.199Z,30.03
2023-09-11T16:52:19.882Z,29.59
2023-09-11T16:54:21.513Z,29.31
2023-09-11T16:56:23.048Z,28.90
2023-09-11T16:58:25.044Z,28.72
2023-09-11T17:00:26.779Z,28.69
2023-09-11T17:02:28.340Z,28.57
2023-09-11T17:04:30.509Z,28.39
2023-09-11T17:06:32.103Z,28.28
2023-09-11T17:08:33.669Z,28.16
2023-09-11T17:10:35.506Z,28.05
2023-09-11T17:12:40.690Z,27.93
2023-09-11T17:14:42.576Z,27.77
2023-09-11T17:16:44.611Z,27.66
2023-09-11T17:18:46.437Z,27.60
2023-09-11T17:20:51.625Z,27.53
2023-09-11T17:22:53.309Z,27.40
2023-09-11T17:24:55.521Z,27.28
2023-09-11T17:26:57.315Z,27.18
2023-09-11T17:28:58.904Z,27.03
2023-09-11T17:31:00.543Z,26.90
2023-09-11T17:33:02.183Z,26.82
2023-09-11T17:35:04.474Z,26.49
2023-09-11T17:37:06.722Z,26.47
2023-09-11T17:39:10.643Z,26.37
2023-09-11T17:41:12.838Z,26.25
2023-09-11T17:43:14.397Z,26.10
2023-09-11T17:45:16.024Z,26.01
2023-09-11T17:47:17.810Z,25.85
2023-09-11T17:49:19.360Z,25.81
2023-09-11T17:51:21.048Z,25.61
2023-09-11T17:53:22.911Z,25.48
2023-09-11T17:55:24.413Z,25.37
2023-09-11T17:57:26.083Z,25.28
2023-09-11T17:59:27.685Z,25.09
2023-09-11T18:01:29.378Z,24.86
2023-09-11T18:03:31.479Z,24.91
2023-09-11T18:05:33.771Z,24.74
2023-09-11T18:07:39.738Z,24.56
2023-09-11T18:09:41.389Z,24.39
2023-09-11T18:11:43.096Z,24.27
2023-09-11T18:13:45.601Z,24.34
2023-09-11T18:15:47.896Z,24.29
2023-09-11T18:17:49.470Z,24.33
2023-09-11T18:19:51.163Z,23.97
2023-09-11T18:21:52.715Z,23.86
2023-09-11T18:23:55.650Z,23.74
2023-09-11T18:25:57.204Z,23.69
2023-09-11T18:27:58.841Z,23.66
2023-09-11T18:30:00.543Z,23.60
2023-09-11T18:32:02.311Z,23.54
2023-09-11T18:34:06.663Z,23.46
2023-09-11T18:36:08.864Z,23.46
2023-09-11T18:38:10.604Z,23.35
2023-09-11T18:40:12.433Z,23.30
2023-09-11T18:42:14.357Z,23.23
2023-09-11T18:44:15.901Z,23.20
2023-09-11T18:46:18.641Z,23.14
2023-09-11T18:48:20.411Z,22.98
2023-09-11T18:50:22.155Z,22.95
2023-09-11T18:52:23.798Z,22.92
2023-09-11T18:54:26.482Z,22.90
2023-09-11T18:56:30.281Z,22.79
2023-09-11T18:58:32.337Z,22.75
2023-09-11T19:00:33.937Z,22.69
2023-09-11T19:02:35.561Z,22.59
2023-09-11T19:04:37.372Z,22.37
2023-09-11T19:06:40.047Z,22.38
2023-09-11T19:08:43.336Z,22.26
2023-09-11T19:10:45.221Z,22.18
2023-09-11T19:12:48.083Z,22.17
2023-09-11T19:14:49.977Z,22.14
2023-09-11T19:16:52.415Z,22.13
2023-09-11T19:18:54.588Z,22.07
2023-09-11T19:20:56.209Z,22.00
2023-09-11T19:22:57.725Z,21.90
2023-09-11T19:24:59.658Z,21.80
2023-09-11T19:27:01.803Z,21.64
2023-09-11T19:29:03.656Z,21.66
2023-09-11T19:31:05.382Z,21.58
2023-09-11T19:33:07.177Z,21.51
2023-09-11T19:35:09.648Z,21.47
2023-09-11T19:37:12.921Z,21.37
2023-09-11T19:39:14.491Z,21.33
2023-09-11T19:41:16.374Z,21.27
2023-09-11T19:43:17.919Z,21.24
2023-09-11T19:45:19.853Z,21.26
2023-09-11T19:47:24.753Z,21.23
2023-09-11T19:49:26.449Z,21.22
2023-09-11T19:51:28.001Z,21.16
2023-09-11T19:53:30.263Z,21.06
2023-09-11T19:55:32.292Z,21.02
2023-09-11T19:57:35.231Z,20.89
2023-09-11T19:59:36.851Z,20.82
2023-09-11T20:01:38.629Z,20.69
2023-09-11T20:03:40.323Z,20.52
2023-09-11T20:05:41.965Z,20.39
2023-09-11T20:07:47.019Z,20.26
2023-09-11T20:09:48.543Z,20.16
2023-09-11T20:11:50.189Z,20.05
2023-09-11T20:13:51.723Z,19.96
2023-09-11T20:15:53.291Z,20.01
2023-09-11T20:17:54.942Z,19.93
2023-09-11T20:19:59.101Z,19.82
2023-09-11T20:22:00.718Z,19.78
2023-09-11T20:24:02.326Z,19.78
2023-09-11T20:26:04.406Z,19.78
2023-09-11T20:28:06.272Z,19.75
2023-09-11T20:30:08.290Z,19.69
2023-09-11T20:32:09.950Z,19.64
2023-09-11T20:34:11.644Z,19.63
2023-09-11T20:36:15.147Z,19.55
2023-09-11T20:38:21.347Z,19.51
2023-09-11T20:40:23.077Z,19.37
2023-09-11T20:42:24.765Z,19.29
2023-09-11T20:44:26.404Z,19.29
2023-09-11T20:46:28.059Z,19.15
2023-09-11T20:48:29.818Z,19.07
2023-09-11T20:50:31.901Z,19.04
2023-09-11T20:52:33.398Z,19.08
2023-09-11T20:54:34.922Z,19.07
2023-09-11T20:56:37.444Z,18.99
2023-09-11T20:58:39.255Z,18.95
2023-09-11T21:00:41.061Z,18.96
2023-09-11T21:02:42.646Z,18.97
2023-09-11T21:04:45.565Z,18.96
2023-09-11T21:06:47.357Z,18.97
2023-09-11T21:08:50.449Z,19.00
2023-09-11T21:10:52.012Z,18.97
2023-09-11T21:12:56.016Z,18.87
2023-09-11T21:14:58.740Z,18.76
2023-09-11T21:17:00.375Z,18.73
2023-09-11T21:19:06.412Z,18.79
2023-09-11T21:21:08.117Z,18.68
2023-09-11T21:23:09.752Z,18.68
2023-09-11T21:25:14.842Z,18.67
2023-09-11T21:27:16.413Z,18.61
2023-09-11T21:29:17.961Z,18.50
2023-09-11T21:31:19.791Z,18.53
2023-09-11T21:33:22.455Z,18.48
2023-09-11T21:35:24.139Z,18.49
2023-09-11T21:37:26.322Z,18.43
2023-09-11T21:39:27.869Z,18.39
2023-09-11T21:41:29.763Z,18.33
2023-09-11T21:43:31.402Z,18.24
2023-09-11T21:45:33.018Z,18.17
2023-09-11T21:47:35.279Z,18.20
2023-09-11T21:49:36.857Z,18.29
2023-09-11T21:51:38.735Z,18.28
2023-09-11T21:53:41.767Z,18.27
2023-09-11T21:55:43.595Z,18.21
2023-09-11T21:57:45.125Z,18.08
2023-09-11T21:59:48.106Z,18.11
2023-09-11T22:01:49.845Z,18.09
2023-09-11T22:03:51.511Z,18.00
2023-09-11T22:05:53.120Z,18.02
2023-09-11T22:07:54.696Z,17.98
2023-09-11T22:09:56.616Z,17.98
2023-09-11T22:11:58.728Z,17.93
2023-09-11T22:14:00.286Z,17.82
2023-09-11T22:16:01.867Z,17.82
2023-09-11T22:18:03.960Z,17.90
2023-09-11T22:20:06.385Z,17.87
2023-09-11T22:22:07.965Z,17.83
2023-09-11T22:24:09.878Z,17.80
2023-09-11T22:26:11.439Z,17.70
2023-09-11T22:28:13.105Z,17.69
2023-09-11T22:30:14.748Z,17.62
2023-09-11T22:32:16.366Z,17.62
2023-09-11T22:34:18.053Z,17.57
2023-09-11T22:36:20.029Z,17.55
2023-09-11T22:38:21.608Z,17.54
2023-09-11T22:40:23.907Z,17.48
2023-09-11T22:42:26.147Z,17.46
2023-09-11T22:44:32.897Z,17.41
2023-09-11T22:46:35.326Z,17.48
2023-09-11T22:48:36.918Z,17.32
2023-09-11T22:50:38.927Z,17.37
2023-09-11T22:52:40.442Z,17.41
2023-09-11T22:54:42.080Z,17.31
2023-09-11T22:56:43.598Z,17.27
2023-09-11T22:58:45.343Z,17.19
2023-09-11T23:00:47.097Z,17.27
2023-09-11T23:02:48.950Z,17.27
2023-09-11T23:04:50.542Z,17.26
2023-09-11T23:06:52.167Z,17.16
2023-09-11T23:08:53.810Z,17.14
2023-09-11T23:10:55.371Z,17.16
2023-09-11T23:12:56.917Z,17.09
2023-09-11T23:14:58.597Z,17.07
2023-09-11T23:17:00.113Z,17.16
2023-09-11T23:19:01.834Z,17.13
2023-09-11T23:21:03.592Z,17.11
2023-09-11T23:23:05.159Z,17.07
2023-09-11T23:25:08.015Z,16.90
2023-09-11T23:27:09.829Z,16.76
2023-09-11T23:29:11.719Z,16.69
2023-09-11T23:31:13.575Z,16.81
2023-09-11T23:33:15.463Z,16.83
2023-09-11T23:35:17.086Z,16.85
2023-09-11T23:37:18.627Z,16.85
2023-09-11T23:39:20.164Z,16.84
2023-09-11T23:41:23.609Z,16.83
2023-09-11T23:43:35.661Z,16.81
2023-09-11T23:45:37.745Z,16.83
2023-09-11T23:47:39.640Z,16.81
2023-09-11T23:49:41.472Z,16.81
2023-09-11T23:51:43.117Z,16.77
2023-09-11T23:53:45.079Z,16.75
2023-09-11T23:55:47.314Z,16.62
2023-09-11T23:57:48.836Z,16.66
2023-09-11T23:59:50.430Z,16.70
